createdAt,value
2018-04-17T00:00:21.210Z,20.4
2018-04-17T00:01:10.131Z,20.4
2018-04-17T00:02:01.332Z,20.4
2018-04-17T00:02:50.850Z,20.4
2018-04-17T00:03:40.410Z,20.4
2018-04-17T00:04:30.638Z,20.4
2018-04-17T00:05:21.005Z,20.4
2018-04-17T00:06:09.990Z,20.4
2018-04-17T00:07:00.090Z,20.4
2018-04-17T00:07:50.110Z,20.4
2018-04-17T00:08:39.892Z,20.4
2018-04-17T00:09:30.287Z,20.5
2018-04-17T00:10:21.195Z,20.4
2018-04-17T00:11:11.048Z,20.4
2018-04-17T00:12:01.270Z,20.4
2018-04-17T00:12:51.144Z,20.4
2018-04-17T00:13:41.754Z,20.4
2018-04-17T00:14:30.712Z,20.4
2018-04-17T00:15:20.491Z,20.4
2018-04-17T00:16:11.277Z,20.4
2018-04-17T00:17:01.679Z,20.4
2018-04-17T00:17:51.716Z,20.4
2018-04-17T00:18:41.474Z,20.4
2018-04-17T00:19:32.138Z,20.4
2018-04-17T00:20:22.419Z,20.4
2018-04-17T00:21:12.516Z,20.4
2018-04-17T00:22:02.011Z,20.4
2018-04-17T00:22:51.869Z,20.4
2018-04-17T00:23:42.641Z,20.4
2018-04-17T00:24:32.422Z,20.4
2018-04-17T00:25:22.232Z,20.4
2018-04-17T00:26:13.166Z,20.4
2018-04-17T00:27:02.700Z,20.4
2018-04-17T00:27:52.109Z,20.4
2018-04-17T00:28:42.487Z,20.4
2018-04-17T00:29:32.866Z,20.4
2018-04-17T00:30:22.913Z,20.4
2018-04-17T00:31:12.342Z,20.4
2018-04-17T00:32:02.732Z,20.4
2018-04-17T00:32:52.789Z,20.4
2018-04-17T00:33:43.524Z,20.4
2018-04-17T00:34:33.504Z,20.4
2018-04-17T00:35:23.863Z,20.4
2018-04-17T00:36:13.396Z,20.4
2018-04-17T00:37:03.412Z,20.4
2018-04-17T00:37:53.767Z,20.4
2018-04-17T00:38:43.797Z,20.4
2018-04-17T00:39:33.025Z,20.4
2018-04-17T00:40:23.916Z,20.4
2018-04-17T00:41:13.719Z,20.4
2018-04-17T00:42:04.036Z,20.4
2018-04-17T00:42:53.276Z,20.4
2018-04-17T00:43:44.429Z,20.4
2018-04-17T00:44:33.954Z,20.4
2018-04-17T00:45:24.252Z,20.4
2018-04-17T00:46:14.387Z,20.4
2018-04-17T00:47:04.133Z,20.4
2018-04-17T00:47:54.473Z,20.4
2018-04-17T00:48:44.267Z,20.4
2018-04-17T00:49:34.899Z,20.4
2018-04-17T00:50:23.807Z,20.3
2018-04-17T00:51:14.479Z,20.3
2018-04-17T00:52:04.820Z,20.4
2018-04-17T00:52:54.400Z,20.3
2018-04-17T00:53:45.253Z,20.3
2018-04-17T00:54:33.583Z,20.4
2018-04-17T00:55:25.090Z,20.4
2018-04-17T00:56:15.095Z,20.4
2018-04-17T00:57:04.617Z,20.4
2018-04-17T00:57:54.409Z,20.4
2018-04-17T00:58:44.795Z,20.4
2018-04-17T00:59:35.070Z,20.4
2018-04-17T01:00:25.459Z,20.4
2018-04-17T01:01:15.777Z,20.4
2018-04-17T01:02:03.862Z,20.4
2018-04-17T01:02:55.036Z,20.3
2018-04-17T01:03:44.838Z,20.4
2018-04-17T01:04:34.872Z,20.4
2018-04-17T01:05:25.546Z,20.4
2018-04-17T01:06:15.958Z,20.4
2018-04-17T01:07:05.624Z,20.4
2018-04-17T01:07:55.674Z,20.4
2018-04-17T01:08:45.262Z,20.4
2018-04-17T01:09:35.838Z,20.4
2018-04-17T01:10:25.610Z,20.3
2018-04-17T01:11:16.547Z,20.3
2018-04-17T01:12:06.319Z,20.3
2018-04-17T01:12:56.619Z,20.4
2018-04-17T01:13:45.567Z,20.4
2018-04-17T01:14:36.819Z,20.4
2018-04-17T01:15:26.534Z,20.4
2018-04-17T01:16:16.096Z,20.4
2018-04-17T01:17:06.707Z,20.4
2018-04-17T01:17:56.182Z,20.4
2018-04-17T01:18:46.505Z,20.4
2018-04-17T01:19:36.861Z,20.4
2018-04-17T01:20:25.533Z,20.4
2018-04-17T01:21:16.189Z,20.4
2018-04-17T01:22:06.484Z,20.3
2018-04-17T01:22:57.113Z,20.3
2018-04-17T01:23:47.208Z,20.4
2018-04-17T01:24:37.282Z,20.3
2018-04-17T01:25:27.063Z,20.4
2018-04-17T01:26:16.856Z,20.4
2018-04-17T01:27:06.887Z,20.4
2018-04-17T01:27:57.781Z,20.4
2018-04-17T01:28:47.040Z,20.3
2018-04-17T01:29:37.648Z,20.3
2018-04-17T01:30:27.106Z,20.4
2018-04-17T01:31:16.332Z,20.4
2018-04-17T01:32:07.800Z,20.4
2018-04-17T01:32:57.654Z,20.3
2018-04-17T01:33:48.230Z,20.4
2018-04-17T01:34:38.233Z,20.4
2018-04-17T01:35:27.527Z,20.3
2018-04-17T01:36:17.872Z,20.3
2018-04-17T01:37:07.325Z,20.3
2018-04-17T01:37:57.140Z,20.3
2018-04-17T01:38:48.055Z,20.4
2018-04-17T01:39:37.839Z,20.4
2018-04-17T01:40:28.155Z,20.4
2018-04-17T01:41:17.928Z,20.4
2018-04-17T01:42:07.743Z,20.3
2018-04-17T01:42:58.389Z,20.4
2018-04-17T01:43:48.799Z,20.4
2018-04-17T01:44:38.724Z,20.3
2018-04-17T01:45:28.261Z,20.3
2018-04-17T01:46:18.036Z,20.4
2018-04-17T01:47:08.411Z,20.4
2018-04-17T01:47:58.770Z,20.4
2018-04-17T01:48:49.089Z,20.3
2018-04-17T01:49:38.876Z,20.3
2018-04-17T01:50:28.979Z,20.3
2018-04-17T01:51:18.983Z,20.3
2018-04-17T01:52:08.469Z,20.4
2018-04-17T01:52:58.840Z,20.3
2018-04-17T01:53:49.482Z,20.3
2018-04-17T01:54:39.506Z,20.4
2018-04-17T01:55:29.283Z,20.3
2018-04-17T01:56:20.219Z,20.3
2018-04-17T01:57:09.111Z,20.4
2018-04-17T01:57:59.184Z,20.4
2018-04-17T01:58:48.985Z,20.3
2018-04-17T01:59:39.043Z,20.3
2018-04-17T02:00:29.714Z,20.3
2018-04-17T02:01:19.456Z,20.3
2018-04-17T02:02:09.213Z,20.3
2018-04-17T02:02:59.849Z,20.3
2018-04-17T02:03:50.246Z,20.3
2018-04-17T02:04:39.758Z,20.3
2018-04-17T02:05:30.048Z,20.4
2018-04-17T02:06:19.252Z,20.3
2018-04-17T02:07:09.631Z,20.3
2018-04-17T02:07:59.956Z,20.4
2018-04-17T02:08:49.663Z,20.4
2018-04-17T02:09:39.578Z,20.3
2018-04-17T02:10:29.585Z,20.3
2018-04-17T02:11:21.020Z,20.3
2018-04-17T02:12:11.157Z,20.3
2018-04-17T02:13:01.242Z,20.3
2018-04-17T02:13:50.942Z,20.3
2018-04-17T02:14:39.908Z,20.3
2018-04-17T02:15:31.086Z,20.3
2018-04-17T02:16:21.138Z,20.3
2018-04-17T02:17:10.949Z,20.3
2018-04-17T02:18:01.267Z,20.3
2018-04-17T02:18:51.410Z,20.3
2018-04-17T02:19:41.120Z,20.3
2018-04-17T02:20:30.872Z,20.3
2018-04-17T02:21:20.947Z,20.3
2018-04-17T02:22:10.866Z,20.3
2018-04-17T02:23:01.380Z,20.3
2018-04-17T02:23:51.432Z,20.3
2018-04-17T02:24:42.025Z,20.3
2018-04-17T02:25:31.551Z,20.3
2018-04-17T02:26:21.900Z,20.3
2018-04-17T02:27:11.402Z,20.3
2018-04-17T02:28:02.346Z,20.3
2018-04-17T02:28:52.089Z,20.3
2018-04-17T02:29:42.131Z,20.3
2018-04-17T02:30:32.264Z,20.3
2018-04-17T02:31:21.505Z,20.3
2018-04-17T02:32:11.821Z,20.3
2018-04-17T02:33:02.160Z,20.3
2018-04-17T02:33:51.707Z,20.3
2018-04-17T02:34:41.983Z,20.3
2018-04-17T02:35:31.750Z,20.3
2018-04-17T02:36:22.396Z,20.3
2018-04-17T02:37:12.200Z,20.3
2018-04-17T02:38:02.535Z,20.3
2018-04-17T02:38:52.838Z,20.3
2018-04-17T02:39:42.392Z,20.3
2018-04-17T02:40:32.169Z,20.3
2018-04-17T02:41:22.767Z,20.3
2018-04-17T02:42:12.820Z,20.3
2018-04-17T02:43:03.192Z,20.3
2018-04-17T02:43:53.222Z,20.3
2018-04-17T02:44:43.128Z,20.3
2018-04-17T02:45:32.549Z,20.3
2018-04-17T02:46:23.726Z,20.3
2018-04-17T02:47:13.168Z,20.3
2018-04-17T02:48:02.508Z,20.3
2018-04-17T02:48:52.773Z,20.3
2018-04-17T02:49:43.386Z,20.3
2018-04-17T02:50:33.183Z,20.3
2018-04-17T02:51:24.091Z,20.3
2018-04-17T02:52:13.839Z,20.3
2018-04-17T02:53:03.063Z,20.3
2018-04-17T02:53:53.975Z,20.3
2018-04-17T02:54:44.147Z,20.2
2018-04-17T02:55:34.383Z,20.3
2018-04-17T02:56:23.123Z,20.3
2018-04-17T02:57:13.657Z,20.3
2018-04-17T02:58:03.472Z,20.3
2018-04-17T02:58:53.257Z,20.3
2018-04-17T02:59:43.323Z,20.3
2018-04-17T03:00:34.463Z,20.3
2018-04-17T03:01:24.239Z,20.3
2018-04-17T03:02:13.729Z,20.3
2018-04-17T03:03:04.216Z,20.3
2018-04-17T03:03:53.916Z,20.3
2018-04-17T03:04:44.612Z,20.3
2018-04-17T03:05:34.880Z,20.3
2018-04-17T03:06:24.378Z,20.3
2018-04-17T03:07:14.958Z,20.2
2018-04-17T03:08:04.241Z,20.2
2018-04-17T03:08:54.266Z,20.2
2018-04-17T03:09:44.918Z,20.2
2018-04-17T03:10:35.252Z,20.2
2018-04-17T03:11:25.040Z,20.2
2018-04-17T03:12:14.221Z,20.2
2018-04-17T03:13:04.822Z,20.2
2018-04-17T03:13:55.163Z,20.2
2018-04-17T03:14:45.036Z,20.2
2018-04-17T03:15:35.330Z,20.2
2018-04-17T03:16:25.663Z,20.2
2018-04-17T03:17:15.721Z,20.2
2018-04-17T03:18:05.829Z,20.2
2018-04-17T03:18:55.808Z,20.2
2018-04-17T03:19:45.955Z,20.2
2018-04-17T03:20:34.845Z,20.2
2018-04-17T03:21:26.278Z,20.2
2018-04-17T03:22:16.083Z,20.2
2018-04-17T03:23:06.116Z,20.3
2018-04-17T03:23:56.025Z,20.2
2018-04-17T03:24:46.602Z,20.2
2018-04-17T03:25:36.212Z,20.2
2018-04-17T03:26:25.555Z,20.2
2018-04-17T03:27:16.284Z,20.2
2018-04-17T03:28:06.342Z,20.2
2018-04-17T03:28:56.321Z,20.2
2018-04-17T03:29:46.121Z,20.2
2018-04-17T03:30:35.872Z,20.2
2018-04-17T03:31:26.517Z,20.2
2018-04-17T03:32:16.377Z,20.2
2018-04-17T03:33:06.102Z,20.3
2018-04-17T03:33:56.207Z,20.2
2018-04-17T03:34:46.191Z,20.3
2018-04-17T03:35:37.349Z,20.2
2018-04-17T03:36:27.177Z,20.2
2018-04-17T03:37:17.313Z,20.2
2018-04-17T03:38:07.276Z,20.2
2018-04-17T03:38:57.100Z,20.3
2018-04-17T03:39:47.449Z,20.2
2018-04-17T03:41:35.678Z,20.3
2018-04-17T03:42:25.867Z,19.9
2018-04-17T03:43:15.523Z,19.8
2018-04-17T03:44:05.372Z,19.9
2018-04-17T03:44:56.791Z,19.9
2018-04-17T03:46:00.640Z,20
2018-04-17T03:46:36.147Z,20
2018-04-17T03:47:25.806Z,20
2018-04-17T03:48:16.668Z,20
2018-04-17T03:49:05.415Z,20.1
2018-04-17T03:49:56.675Z,20.1
2018-04-17T03:50:46.175Z,20.1
2018-04-17T03:51:35.939Z,20.1
2018-04-17T03:52:26.486Z,20.1
2018-04-17T03:53:16.667Z,20.1
2018-04-17T03:54:06.100Z,20.1
2018-04-17T03:54:56.606Z,20.1
2018-04-17T03:55:45.690Z,20.1
2018-04-17T03:56:37.098Z,20.1
2018-04-17T03:57:26.933Z,20.1
2018-04-17T03:58:16.535Z,20.1
2018-04-17T03:59:35.853Z,20.2
2018-04-17T03:59:56.934Z,20.1
2018-04-17T04:01:01.532Z,20.1
2018-04-17T04:01:37.281Z,20.1
2018-04-17T04:02:26.549Z,20.1
2018-04-17T04:03:16.861Z,20.1
2018-04-17T04:04:05.506Z,20.2
2018-04-17T04:04:57.773Z,20.1
2018-04-17T04:05:47.343Z,20.1
2018-04-17T04:06:37.944Z,20.1
2018-04-17T04:07:26.980Z,20.1
2018-04-17T04:08:17.782Z,20.1
2018-04-17T04:09:07.013Z,20.2
2018-04-17T04:09:57.106Z,20.2
2018-04-17T04:10:47.700Z,20.1
2018-04-17T04:11:37.779Z,20.1
2018-04-17T04:12:42.688Z,20.1
2018-04-17T04:13:17.564Z,20.1
2018-04-17T04:14:22.585Z,20.2
2018-04-17T04:14:57.228Z,20.2
2018-04-17T04:15:47.025Z,20.1
2018-04-17T04:16:52.759Z,20.2
2018-04-17T04:17:42.504Z,20.2
2018-04-17T04:18:33.580Z,20.1
2018-04-17T04:19:22.662Z,20.2
2018-04-17T04:19:58.896Z,20.1
2018-04-17T04:20:48.155Z,20.1
2018-04-17T04:21:38.253Z,20.2
2018-04-17T04:22:43.161Z,20.2
2018-04-17T04:23:18.319Z,20.2
2018-04-17T04:24:24.649Z,20.2
2018-04-17T04:24:59.229Z,20.2
2018-04-17T04:25:49.706Z,20.2
2018-04-17T04:26:38.822Z,20.2
2018-04-17T04:27:29.515Z,20.1
2018-04-17T04:28:19.153Z,20.1
2018-04-17T04:29:08.936Z,20.1
2018-04-17T04:29:59.366Z,20.1
2018-04-17T04:30:48.869Z,20.1
2018-04-17T04:31:38.694Z,20.1
2018-04-17T04:32:28.712Z,20.1
2018-04-17T04:33:19.117Z,20.1
2018-04-17T04:34:08.883Z,20.2
2018-04-17T04:34:59.348Z,20.2
2018-04-17T04:35:49.330Z,20.2
2018-04-17T04:36:53.748Z,20.2
2018-04-17T04:37:29.375Z,20.2
2018-04-17T04:38:19.745Z,20.2
2018-04-17T04:39:09.347Z,20.2
2018-04-17T04:39:59.340Z,20.2
2018-04-17T04:40:49.833Z,20.2
2018-04-17T04:41:40.031Z,20.2
2018-04-17T04:42:29.003Z,20.2
2018-04-17T04:43:20.263Z,20.2
2018-04-17T04:44:25.363Z,20.2
2018-04-17T04:45:00.588Z,20.2
2018-04-17T04:45:50.358Z,20.2
2018-04-17T04:46:40.076Z,20.2
2018-04-17T04:47:30.357Z,20.1
2018-04-17T04:48:20.773Z,20.2
2018-04-17T04:49:08.845Z,20.2
2018-04-17T04:50:00.374Z,20.2
2018-04-17T04:51:05.890Z,20.2
2018-04-17T04:51:40.449Z,20.3
2018-04-17T04:52:31.047Z,20.3
2018-04-17T04:53:21.065Z,20.2
2018-04-17T04:54:10.922Z,20.2
2018-04-17T04:55:00.672Z,20.3
2018-04-17T04:56:41.194Z,20.3
2018-04-17T04:57:31.648Z,20.3
2018-04-17T04:58:35.725Z,20.3
2018-04-17T04:59:10.237Z,20.3
2018-04-17T05:00:00.875Z,20.3
2018-04-17T05:00:50.841Z,20.3
2018-04-17T05:01:41.574Z,20.3
2018-04-17T05:02:31.651Z,20.3
2018-04-17T05:03:20.852Z,20.3
2018-04-17T05:04:11.414Z,20.3
2018-04-17T05:05:16.305Z,20.3
2018-04-17T05:05:51.598Z,20.3
2018-04-17T05:06:42.185Z,20.3
2018-04-17T05:07:31.956Z,20.3
2018-04-17T05:08:22.027Z,20.3
2018-04-17T05:09:12.488Z,20.3
2018-04-17T05:10:16.515Z,20.3
2018-04-17T05:10:51.994Z,20.3
2018-04-17T05:11:41.341Z,20.4
2018-04-17T05:12:31.471Z,20.4
2018-04-17T05:13:21.595Z,20.4
2018-04-17T05:14:12.189Z,20.4
2018-04-17T05:15:02.745Z,20.4
2018-04-17T05:15:52.357Z,20.4
2018-04-17T05:16:42.700Z,20.5
2018-04-17T05:17:46.864Z,20.4
2018-04-17T05:18:21.878Z,20.4
2018-04-17T05:19:12.804Z,20.4
2018-04-17T05:20:01.592Z,20.4
2018-04-17T05:20:53.024Z,20.4
2018-04-17T05:21:42.981Z,20.4
2018-04-17T05:22:32.820Z,20.4
2018-04-17T05:23:55.656Z,20.5
2018-04-17T05:24:12.666Z,20.4
2018-04-17T05:25:17.924Z,20.4
2018-04-17T05:25:53.539Z,20.4
2018-04-17T05:26:43.851Z,20.4
2018-04-17T05:27:32.572Z,20.5
2018-04-17T05:28:24.014Z,20.4
2018-04-17T05:29:13.018Z,20.4
2018-04-17T05:30:04.739Z,20.4
2018-04-17T05:30:53.963Z,20.4
2018-04-17T05:31:44.224Z,20.4
2018-04-17T05:32:33.200Z,20.4
2018-04-17T05:33:54.751Z,20.4
2018-04-17T05:34:14.035Z,20.4
2018-04-17T05:35:03.400Z,20.4
2018-04-17T05:35:54.335Z,20.4
2018-04-17T05:36:44.772Z,20.4
2018-04-17T05:37:34.416Z,20.3
2018-04-17T05:38:39.207Z,20.3
2018-04-17T05:39:14.326Z,20.3
2018-04-17T05:40:05.260Z,20.3
2018-04-17T05:40:54.988Z,20.3
2018-04-17T05:41:44.326Z,20.3
2018-04-17T05:42:34.599Z,20.3
2018-04-17T05:43:24.635Z,20.3
2018-04-17T05:44:15.216Z,20.3
2018-04-17T05:45:19.435Z,20.3
2018-04-17T05:45:55.047Z,20.3
2018-04-17T05:46:45.101Z,20.3
2018-04-17T05:47:35.943Z,20.3
2018-04-17T05:48:24.802Z,20.3
2018-04-17T05:49:29.650Z,20.3
2018-04-17T05:50:05.171Z,20.3
2018-04-17T05:50:55.367Z,20.2
2018-04-17T05:51:46.286Z,20.3
2018-04-17T05:52:35.577Z,20.2
2018-04-17T05:53:25.738Z,20.2
2018-04-17T05:54:16.011Z,20.2
2018-04-17T05:55:06.334Z,20.2
2018-04-17T05:56:10.786Z,20.3
2018-04-17T05:56:46.204Z,20.2
2018-04-17T05:57:36.027Z,20.2
2018-04-17T05:58:26.293Z,20.3
2018-04-17T05:59:30.780Z,20.3
2018-04-17T06:00:20.558Z,20.3
2018-04-17T06:00:56.524Z,20.3
2018-04-17T06:02:00.649Z,20.3
2018-04-17T06:02:36.622Z,20.3
2018-04-17T06:03:26.146Z,20.3
2018-04-17T06:04:16.235Z,20.3
2018-04-17T06:05:06.579Z,20.3
2018-04-17T06:06:45.887Z,20.3
2018-04-17T06:07:36.215Z,20.3
2018-04-17T06:08:25.184Z,20.4
2018-04-17T06:09:16.109Z,20.4
2018-04-17T06:10:06.591Z,20.4
2018-04-17T06:10:56.521Z,20.4
2018-04-17T06:11:46.881Z,20.4
2018-04-17T06:12:51.268Z,20.4
2018-04-17T06:13:27.217Z,20.4
2018-04-17T06:14:16.964Z,20.4
2018-04-17T06:15:06.991Z,20.4
2018-04-17T06:15:56.321Z,20.4
2018-04-17T06:17:18.474Z,20.4
2018-04-17T06:17:36.599Z,20.4
2018-04-17T06:18:25.926Z,20.4
2018-04-17T06:19:16.845Z,20.4
2018-04-17T06:20:06.363Z,20.3
2018-04-17T06:20:57.098Z,20.3
2018-04-17T06:21:47.055Z,20.3
2018-04-17T06:22:37.415Z,20.3
2018-04-17T06:23:42.792Z,20.3
2018-04-17T06:24:17.721Z,20.3
2018-04-17T06:25:07.966Z,20.4
2018-04-17T06:25:57.247Z,20.4
2018-04-17T06:26:47.608Z,20.4
2018-04-17T06:27:37.734Z,20.4
2018-04-17T06:28:26.755Z,20.4
2018-04-17T06:29:17.523Z,20.4
2018-04-17T06:30:07.785Z,20.3
2018-04-17T06:31:12.855Z,20.4
2018-04-17T06:32:02.356Z,20.3
2018-04-17T06:32:38.107Z,20.3
2018-04-17T06:33:27.795Z,20.4
2018-04-17T06:34:18.280Z,20.4
2018-04-17T06:35:08.637Z,20.3
2018-04-17T06:35:58.515Z,20.4
2018-04-17T06:36:48.357Z,20.4
2018-04-17T06:37:38.482Z,20.4
2018-04-17T06:38:43.882Z,20.4
2018-04-17T06:39:18.649Z,20.4
2018-04-17T06:40:08.659Z,20.4
2018-04-17T06:40:58.987Z,20.4
2018-04-17T06:41:50.065Z,20.4
2018-04-17T06:42:38.815Z,20.4
2018-04-17T06:43:29.594Z,20.4
2018-04-17T06:44:19.953Z,20.4
2018-04-17T06:45:08.507Z,20.4
2018-04-17T06:45:59.524Z,20.4
2018-04-17T06:46:49.643Z,20.4
2018-04-17T06:47:55.825Z,20.4
2018-04-17T06:48:43.827Z,20.4
2018-04-17T06:49:20.791Z,20.4
2018-04-17T06:50:09.931Z,20.4
2018-04-17T06:50:59.444Z,20.4
2018-04-17T06:51:49.819Z,20.4
2018-04-17T06:52:40.687Z,20.4
2018-04-17T06:53:30.214Z,20.4
2018-04-17T06:54:19.640Z,20.4
2018-04-17T06:55:10.359Z,20.4
2018-04-17T06:55:59.154Z,20.4
2018-04-17T06:56:50.457Z,20.4
2018-04-17T06:58:12.408Z,20.4
2018-04-17T06:58:29.242Z,20.4
2018-04-17T06:59:20.983Z,20.4
2018-04-17T07:00:10.942Z,20.4
2018-04-17T07:01:15.700Z,20.5
2018-04-17T07:02:05.713Z,20.4
2018-04-17T07:02:40.593Z,20.4
2018-04-17T07:03:30.175Z,20.4
2018-04-17T07:04:20.938Z,20.4
2018-04-17T07:05:11.315Z,20.5
2018-04-17T07:06:01.803Z,20.5
2018-04-17T07:06:51.198Z,20.5
2018-04-17T07:07:41.973Z,20.6
2018-04-17T07:08:30.688Z,20.6
2018-04-17T07:09:21.935Z,20.6
2018-04-17T07:10:11.399Z,20.6
2018-04-17T07:11:01.191Z,20.6
2018-04-17T07:11:51.164Z,20.6
2018-04-17T07:12:42.331Z,20.6
2018-04-17T07:13:30.559Z,20.6
2018-04-17T07:14:21.403Z,20.7
2018-04-17T07:15:12.017Z,20.7
2018-04-17T07:16:01.815Z,20.8
2018-04-17T07:16:52.307Z,20.8
2018-04-17T07:17:41.251Z,20.8
2018-04-17T07:18:31.258Z,20.7
2018-04-17T07:19:21.868Z,20.8
2018-04-17T07:20:11.945Z,20.8
2018-04-17T07:21:02.566Z,20.8
2018-04-17T07:22:06.676Z,20.8
2018-04-17T07:22:42.454Z,20.8
2018-04-17T07:23:31.942Z,20.8
2018-04-17T07:24:21.655Z,20.8
2018-04-17T07:25:12.376Z,20.9
2018-04-17T07:26:02.614Z,20.8
2018-04-17T07:26:51.779Z,20.8
2018-04-17T07:27:42.180Z,20.8
2018-04-17T07:28:32.591Z,20.9
2018-04-17T07:30:12.148Z,20.9
2018-04-17T07:31:02.804Z,20.9
2018-04-17T07:31:52.240Z,20.9
2018-04-17T07:32:43.031Z,20.9
2018-04-17T07:33:33.292Z,20.9
2018-04-17T07:34:36.940Z,20.9
2018-04-17T07:35:13.063Z,20.9
2018-04-17T07:36:02.552Z,20.9
2018-04-17T07:36:53.693Z,20.9
2018-04-17T07:37:43.015Z,20.9
2018-04-17T07:38:33.417Z,20.9
2018-04-17T07:39:23.058Z,20.9
2018-04-17T07:40:13.717Z,20.9
2018-04-17T07:41:03.834Z,20.9
2018-04-17T07:41:54.118Z,21
2018-04-17T07:42:43.855Z,20.9
2018-04-17T07:43:49.962Z,21
2018-04-17T07:44:24.300Z,21
2018-04-17T07:45:27.969Z,21
2018-04-17T07:46:04.169Z,21
2018-04-17T07:46:54.459Z,21.1
2018-04-17T07:47:43.542Z,21.1
2018-04-17T07:48:35.060Z,21.1
2018-04-17T07:51:54.043Z,21.2
2018-04-17T07:52:45.371Z,21.2
2018-04-17T07:53:34.749Z,21.2
2018-04-17T07:54:24.454Z,21.2
2018-04-17T07:55:14.871Z,21.2
2018-04-17T07:56:05.797Z,21.2
2018-04-17T07:56:54.653Z,21.2
2018-04-17T07:57:45.343Z,21.3
2018-04-17T07:58:35.492Z,21.3
2018-04-17T07:59:25.086Z,21.2
2018-04-17T08:00:14.413Z,21.2
2018-04-17T08:01:05.343Z,21.2
2018-04-17T08:01:55.938Z,21.2
2018-04-17T08:02:45.416Z,21.2
2018-04-17T08:03:35.215Z,21.3
2018-04-17T08:04:24.885Z,21.3
2018-04-17T08:05:15.116Z,21.3
2018-04-17T08:06:05.597Z,21.3
2018-04-17T08:07:10.145Z,21.3
2018-04-17T08:07:46.124Z,21.3
2018-04-17T08:08:35.910Z,21.3
2018-04-17T08:09:24.842Z,21.4
2018-04-17T08:10:15.258Z,21.3
2018-04-17T08:11:05.269Z,21.3
2018-04-17T08:11:57.034Z,21.3
2018-04-17T08:12:45.616Z,21.3
2018-04-17T08:13:35.762Z,21.3
2018-04-17T08:14:25.304Z,21.3
2018-04-17T08:16:20.646Z,21.3
2018-04-17T08:16:55.980Z,21.4
2018-04-17T08:17:47.118Z,21.4
2018-04-17T08:18:36.405Z,21.4
2018-04-17T08:19:26.607Z,21.4
2018-04-17T08:20:16.468Z,21.4
2018-04-17T08:21:06.804Z,21.4
2018-04-17T08:21:56.432Z,21.4
2018-04-17T08:22:46.638Z,21.4
2018-04-17T08:23:51.122Z,21.4
2018-04-17T08:24:27.359Z,21.4
2018-04-17T08:26:07.208Z,21.4
2018-04-17T08:27:26.335Z,21.4
2018-04-17T08:27:47.344Z,21.4
2018-04-17T08:28:36.327Z,21.4
2018-04-17T08:29:27.529Z,21.4
2018-04-17T08:30:32.577Z,21.5
2018-04-17T08:31:06.521Z,21.4
2018-04-17T08:31:58.179Z,21.5
2018-04-17T08:32:47.806Z,21.5
2018-04-17T08:33:37.684Z,21.5
2018-04-17T08:34:27.621Z,21.5
2018-04-17T08:35:17.421Z,21.4
2018-04-17T08:36:07.265Z,21.4
2018-04-17T08:36:58.129Z,21.4
2018-04-17T08:37:47.919Z,21.5
2018-04-17T08:38:38.770Z,21.5
2018-04-17T08:39:28.396Z,21.6
2018-04-17T08:40:18.598Z,21.5
2018-04-17T08:41:08.127Z,21.6
2018-04-17T08:41:58.229Z,21.5
2018-04-17T08:42:48.588Z,21.5
2018-04-17T08:43:38.280Z,21.6
2018-04-17T08:44:28.950Z,21.5
2018-04-17T08:45:19.014Z,21.5
2018-04-17T08:46:09.067Z,21.5
2018-04-17T08:47:31.164Z,21.5
2018-04-17T08:47:49.140Z,21.5
2018-04-17T08:48:38.666Z,21.5
2018-04-17T08:49:28.042Z,21.5
2018-04-17T08:50:19.348Z,21.6
2018-04-17T08:51:08.616Z,21.5
2018-04-17T08:51:59.248Z,21.5
2018-04-17T08:52:48.763Z,21.6
2018-04-17T08:53:38.990Z,21.5
2018-04-17T08:54:30.213Z,21.6
2018-04-17T08:55:18.436Z,21.6
2018-04-17T08:56:08.932Z,21.5
2018-04-17T08:56:59.392Z,21.5
2018-04-17T08:57:49.557Z,21.5
2018-04-17T08:58:39.695Z,21.6
2018-04-17T08:59:45.426Z,21.6
2018-04-17T09:00:20.344Z,21.6
2018-04-17T09:01:25.333Z,21.6
2018-04-17T09:01:59.233Z,21.6
2018-04-17T09:03:04.641Z,21.6
2018-04-17T09:03:44.979Z,21.6
2018-04-17T09:04:34.029Z,21.6
2018-04-17T09:05:25.811Z,21.6
2018-04-17T09:06:46.532Z,21.6
2018-04-17T09:07:05.287Z,21.6
2018-04-17T09:07:54.369Z,21.6
2018-04-17T09:08:45.306Z,21.6
2018-04-17T09:09:35.246Z,21.6
2018-04-17T09:10:25.127Z,21.5
2018-04-17T09:11:15.842Z,21.6
2018-04-17T09:12:05.504Z,21.6
2018-04-17T09:12:54.007Z,21.6
2018-04-17T09:13:45.354Z,21.5
2018-04-17T09:14:34.894Z,21.6
2018-04-17T09:15:39.802Z,21.6
2018-04-17T09:16:15.530Z,21.6
2018-04-17T09:17:05.147Z,21.6
2018-04-17T09:17:55.242Z,21.6
2018-04-17T09:18:45.457Z,21.6
2018-04-17T09:19:36.341Z,21.6
2018-04-17T09:20:25.863Z,21.6
2018-04-17T09:21:14.775Z,21.6
2018-04-17T09:22:06.231Z,21.6
2018-04-17T09:23:09.861Z,21.6
2018-04-17T09:24:01.704Z,21.6
2018-04-17T09:24:34.908Z,21.5
2018-04-17T09:25:40.524Z,21.5
2018-04-17T09:26:16.464Z,21.5
2018-04-17T09:27:05.306Z,21.5
2018-04-17T09:27:56.151Z,21.5
2018-04-17T09:28:46.740Z,21.4
2018-04-17T09:29:37.061Z,21.4
2018-04-17T09:30:41.543Z,21.4
2018-04-17T09:31:16.336Z,21.5
2018-04-17T09:32:07.309Z,21.5
2018-04-17T09:32:57.395Z,21.5
2018-04-17T09:33:47.128Z,21.5
2018-04-17T09:34:37.202Z,21.5
2018-04-17T09:35:27.261Z,21.6
2018-04-17T09:36:17.513Z,21.5
2018-04-17T09:37:07.178Z,21.5
2018-04-17T09:37:57.436Z,21.5
2018-04-17T09:39:01.911Z,21.5
2018-04-17T09:39:36.723Z,21.6
2018-04-17T09:40:27.388Z,21.5
2018-04-17T09:41:17.783Z,21.6
2018-04-17T09:42:07.519Z,21.5
2018-04-17T09:42:57.685Z,21.5
2018-04-17T09:43:47.873Z,21.5
2018-04-17T09:44:38.125Z,21.5
2018-04-17T09:45:28.191Z,21.5
2018-04-17T09:46:17.744Z,21.5
2018-04-17T09:47:08.341Z,21.5
2018-04-17T09:47:57.642Z,21.5
2018-04-17T09:48:47.996Z,21.5
2018-04-17T09:49:38.126Z,21.5
2018-04-17T09:50:43.302Z,21.5
2018-04-17T09:51:18.429Z,21.5
2018-04-17T09:52:06.656Z,21.4
2018-04-17T09:52:58.886Z,21.4
2018-04-17T09:53:48.128Z,21.5
2018-04-17T09:54:38.700Z,21.5
2018-04-17T09:55:28.538Z,21.5
2018-04-17T09:56:18.435Z,21.4
2018-04-17T09:57:09.336Z,21.5
2018-04-17T09:58:13.402Z,21.5
2018-04-17T09:59:38.584Z,21.5
2018-04-17T10:00:43.229Z,21.5
2018-04-17T10:01:18.404Z,21.5
2018-04-17T10:02:09.510Z,21.5
2018-04-17T10:02:58.914Z,21.5
2018-04-17T10:03:49.401Z,21.5
2018-04-17T10:04:39.309Z,21.5
2018-04-17T10:05:29.308Z,21.5
2018-04-17T10:06:18.939Z,21.5
2018-04-17T10:07:09.591Z,21.6
2018-04-17T10:07:59.537Z,21.5
2018-04-17T10:08:50.777Z,21.4
2018-04-17T10:10:08.581Z,21.5
2018-04-17T10:10:44.292Z,21.5
2018-04-17T10:11:20.161Z,21.5
2018-04-17T10:12:10.805Z,21.5
2018-04-17T10:13:00.151Z,21.5
2018-04-17T10:13:49.365Z,21.4
2018-04-17T10:14:39.966Z,21.4
2018-04-17T10:15:30.020Z,21.4
2018-04-17T10:16:19.842Z,21.4
2018-04-17T10:17:09.833Z,21.4
2018-04-17T10:18:01.070Z,21.4
2018-04-17T10:18:50.041Z,21.4
2018-04-17T10:19:39.716Z,21.4
2018-04-17T10:20:30.566Z,21.4
2018-04-17T10:21:20.585Z,21.4
2018-04-17T10:22:10.880Z,21.4
2018-04-17T10:23:00.175Z,21.5
2018-04-17T10:23:50.749Z,21.4
2018-04-17T10:24:41.102Z,21.4
2018-04-17T10:25:31.130Z,21.5
2018-04-17T10:26:21.125Z,21.4
2018-04-17T10:27:11.269Z,21.4
2018-04-17T10:28:16.192Z,21.4
2018-04-17T10:29:05.742Z,21.4
2018-04-17T10:29:41.117Z,21.4
2018-04-17T10:30:31.325Z,21.4
2018-04-17T10:31:35.430Z,21.4
2018-04-17T10:32:11.011Z,21.4
2018-04-17T10:33:16.531Z,21.4
2018-04-17T10:34:28.514Z,21.7
2018-04-17T10:35:19.332Z,21.8
2018-04-17T10:36:09.681Z,21.7
2018-04-17T10:36:59.201Z,21.6
2018-04-17T10:37:48.976Z,21.6
2018-04-17T10:38:39.869Z,21.5
2018-04-17T10:39:28.874Z,21.6
2018-04-17T10:40:19.753Z,21.5
2018-04-17T10:41:09.251Z,21.5
2018-04-17T10:41:59.872Z,21.5
2018-04-17T10:42:49.391Z,21.5
2018-04-17T10:43:39.694Z,21.5
2018-04-17T10:44:29.488Z,21.4
2018-04-17T10:45:18.116Z,21.4
2018-04-17T10:46:09.142Z,21.5
2018-04-17T10:47:00.070Z,21.5
2018-04-17T10:47:48.517Z,21.5
2018-04-17T10:48:38.426Z,21.5
2018-04-17T10:49:28.249Z,21.5
2018-04-17T10:50:19.753Z,21.5
2018-04-17T10:51:10.004Z,21.5
2018-04-17T10:52:00.593Z,21.5
2018-04-17T10:52:49.843Z,21.4
2018-04-17T10:53:41.081Z,21.5
2018-04-17T10:54:30.231Z,21.5
2018-04-17T10:55:20.739Z,21.5
2018-04-17T10:56:09.560Z,21.4
2018-04-17T10:57:00.732Z,21.4
2018-04-17T10:57:50.348Z,21.4
2018-04-17T10:58:41.128Z,21.5
2018-04-17T10:59:29.769Z,21.5
2018-04-17T11:00:21.011Z,21.5
2018-04-17T11:01:11.070Z,21.5
2018-04-17T11:02:00.776Z,21.5
2018-04-17T11:02:51.160Z,21.5
2018-04-17T11:03:41.246Z,21.5
2018-04-17T11:04:31.562Z,21.6
2018-04-17T11:05:21.190Z,21.5
2018-04-17T11:06:11.723Z,21.5
2018-04-17T11:07:01.697Z,21.5
2018-04-17T11:07:52.092Z,21.5
2018-04-17T11:08:41.036Z,21.5
2018-04-17T11:09:30.947Z,21.5
2018-04-17T11:10:22.179Z,21.6
2018-04-17T11:11:12.065Z,21.5
2018-04-17T11:12:02.152Z,21.5
2018-04-17T11:12:52.500Z,21.5
2018-04-17T11:13:40.872Z,21.5
2018-04-17T11:14:32.422Z,21.5
2018-04-17T11:15:22.397Z,21.6
2018-04-17T11:16:11.739Z,21.5